sensor_id;sensor_type;location;lat;lon;timestamp;pressure;altitude;pressure_sealevel;temperature;humidity
54389;BME280;40975;50.390;8.640;2024-03-25T00:00:43;98123.50;;;4.70;100.00
54389;BME280;40975;50.390;8.640;2024-03-25T00:03:09;98124.91;;;4.74;100.00
54389;BME280;40975;50.390;8.640;2024-03-25T00:05:34;98114.41;;;4.74;100.00
54389;BME280;40975;50.390;8.640;2024-03-25T00:07:59;98117.84;;;4.74;100.00
54389;BME280;40975;50.390;8.640;2024-03-25T00:10:25;98134.44;;;4.75;100.00
54389;BME280;40975;50.390;8.640;2024-03-25T00:12:50;98131.69;;;4.76;100.00
54389;BME280;40975;50.390;8.640;2024-03-25T00:15:20;98131.81;;;4.75;100.00
54389;BME280;40975;50.390;8.640;2024-03-25T00:17:49;98128.13;;;4.87;100.00
54389;BME280;40975;50.390;8.640;2024-03-25T00:20:15;98134.31;;;4.76;100.00
54389;BME280;40975;50.390;8.640;2024-03-25T00:22:41;98131.69;;;4.76;100.00
54389;BME280;40975;50.390;8.640;2024-03-25T00:25:07;98132.66;;;4.75;100.00
54389;BME280;40975;50.390;8.640;2024-03-25T00:27:32;98132.81;;;4.74;100.00
54389;BME280;40975;50.390;8.640;2024-03-25T00:29:58;98133.88;;;4.71;100.00
54389;BME280;40975;50.390;8.640;2024-03-25T00:32:23;98140.53;;;4.75;100.00
54389;BME280;40975;50.390;8.640;2024-03-25T00:34:49;98144.84;;;4.76;100.00
54389;BME280;40975;50.390;8.640;2024-03-25T00:37:14;98153.13;;;4.72;100.00
54389;BME280;40975;50.390;8.640;2024-03-25T00:39:40;98143.00;;;4.67;100.00
54389;BME280;40975;50.390;8.640;2024-03-25T00:42:05;98140.63;;;4.54;100.00
54389;BME280;40975;50.390;8.640;2024-03-25T00:44:31;98135.31;;;4.44;100.00
54389;BME280;40975;50.390;8.640;2024-03-25T00:46:56;98127.97;;;4.38;100.00
54389;BME280;40975;50.390;8.640;2024-03-25T00:49:21;98128.16;;;4.25;100.00
54389;BME280;40975;50.390;8.640;2024-03-25T00:51:48;98129.31;;;4.11;100.00
54389;BME280;40975;50.390;8.640;2024-03-25T00:54:13;98134.53;;;4.01;100.00
54389;BME280;40975;50.390;8.640;2024-03-25T00:56:39;98131.97;;;3.90;100.00
54389;BME280;40975;50.390;8.640;2024-03-25T00:59:04;98125.59;;;3.83;100.00
54389;BME280;40975;50.390;8.640;2024-03-25T01:01:32;98132.38;;;3.85;100.00
54389;BME280;40975;50.390;8.640;2024-03-25T01:03:58;98136.56;;;3.77;100.00
54389;BME280;40975;50.390;8.640;2024-03-25T01:06:23;98143.31;;;3.69;100.00
54389;BME280;40975;50.390;8.640;2024-03-25T01:08:49;98139.53;;;3.62;100.00
54389;BME280;40975;50.390;8.640;2024-03-25T01:11:15;98146.09;;;3.56;100.00
54389;BME280;40975;50.390;8.640;2024-03-25T01:13:41;98151.03;;;3.50;100.00
54389;BME280;40975;50.390;8.640;2024-03-25T01:16:09;98154.16;;;3.44;100.00
54389;BME280;40975;50.390;8.640;2024-03-25T01:18:35;98152.00;;;3.37;100.00
54389;BME280;40975;50.390;8.640;2024-03-25T01:21:00;98157.41;;;3.36;100.00
54389;BME280;40975;50.390;8.640;2024-03-25T01:23:26;98145.69;;;3.40;100.00
54389;BME280;40975;50.390;8.640;2024-03-25T01:25:52;98150.19;;;3.49;100.00
54389;BME280;40975;50.390;8.640;2024-03-25T01:28:17;98145.25;;;3.56;100.00
54389;BME280;40975;50.390;8.640;2024-03-25T01:30:43;98154.75;;;3.68;100.00
54389;BME280;40975;50.390;8.640;2024-03-25T01:33:08;98145.53;;;3.74;100.00
54389;BME280;40975;50.390;8.640;2024-03-25T01:35:34;98149.22;;;3.83;100.00
54389;BME280;40975;50.390;8.640;2024-03-25T01:37:59;98147.88;;;3.88;100.00
54389;BME280;40975;50.390;8.640;2024-03-25T01:40:25;98148.25;;;4.05;100.00
54389;BME280;40975;50.390;8.640;2024-03-25T01:43:00;98151.44;;;4.09;100.00
54389;BME280;40975;50.390;8.640;2024-03-25T01:45:29;98150.34;;;4.11;100.00
54389;BME280;40975;50.390;8.640;2024-03-25T01:47:56;98149.66;;;4.09;100.00
54389;BME280;40975;50.390;8.640;2024-03-25T01:50:22;98147.28;;;4.06;100.00
54389;BME280;40975;50.390;8.640;2024-03-25T01:52:48;98154.78;;;4.11;100.00
54389;BME280;40975;50.390;8.640;2024-03-25T01:55:26;98151.28;;;4.10;100.00
54389;BME280;40975;50.390;8.640;2024-03-25T01:57:52;98155.03;;;4.08;100.00
54389;BME280;40975;50.390;8.640;2024-03-25T02:00:18;98151.69;;;4.05;100.00
54389;BME280;40975;50.390;8.640;2024-03-25T02:02:48;98150.47;;;4.10;100.00
54389;BME280;40975;50.390;8.640;2024-03-25T02:05:17;98157.22;;;4.02;100.00
54389;BME280;40975;50.390;8.640;2024-03-25T02:07:44;98147.91;;;3.98;100.00
54389;BME280;40975;50.390;8.640;2024-03-25T02:10:09;98154.00;;;3.99;100.00
54389;BME280;40975;50.390;8.640;2024-03-25T02:12:38;98154.50;;;3.93;100.00
54389;BME280;40975;50.390;8.640;2024-03-25T02:15:06;98166.81;;;3.92;100.00
54389;BME280;40975;50.390;8.640;2024-03-25T02:17:33;98169.06;;;3.97;100.00
54389;BME280;40975;50.390;8.640;2024-03-25T02:19:58;98163.59;;;4.10;100.00
54389;BME280;40975;50.390;8.640;2024-03-25T02:22:24;98169.09;;;4.07;100.00
54389;BME280;40975;50.390;8.640;2024-03-25T02:24:52;98166.03;;;4.01;100.00
54389;BME280;40975;50.390;8.640;2024-03-25T02:27:18;98162.31;;;4.04;100.00
54389;BME280;40975;50.390;8.640;2024-03-25T02:29:44;98163.41;;;4.01;100.00
54389;BME280;40975;50.390;8.640;2024-03-25T02:32:10;98168.66;;;4.01;100.00
54389;BME280;40975;50.390;8.640;2024-03-25T02:34:44;98154.00;;;3.99;100.00
54389;BME280;40975;50.390;8.640;2024-03-25T02:37:10;98160.34;;;3.96;100.00
54389;BME280;40975;50.390;8.640;2024-03-25T02:39:39;98171.88;;;3.84;100.00
54389;BME280;40975;50.390;8.640;2024-03-25T02:42:05;98171.66;;;3.76;100.00
54389;BME280;40975;50.390;8.640;2024-03-25T02:44:31;98173.97;;;3.69;100.00
54389;BME280;40975;50.390;8.640;2024-03-25T02:46:57;98173.50;;;3.64;100.00
54389;BME280;40975;50.390;8.640;2024-03-25T02:49:23;98168.63;;;3.59;100.00
54389;BME280;40975;50.390;8.640;2024-03-25T02:51:48;98172.16;;;3.48;100.00
54389;BME280;40975;50.390;8.640;2024-03-25T02:54:14;98170.97;;;3.41;100.00
54389;BME280;40975;50.390;8.640;2024-03-25T02:56:40;98170.75;;;3.33;100.00
54389;BME280;40975;50.390;8.640;2024-03-25T02:59:06;98179.69;;;3.30;100.00
54389;BME280;40975;50.390;8.640;2024-03-25T03:01:31;98173.97;;;3.25;100.00
54389;BME280;40975;50.390;8.640;2024-03-25T03:03:57;98175.53;;;3.28;100.00
54389;BME280;40975;50.390;8.640;2024-03-25T03:06:22;98191.28;;;3.28;100.00
54389;BME280;40975;50.390;8.640;2024-03-25T03:08:48;98195.44;;;3.30;100.00
54389;BME280;40975;50.390;8.640;2024-03-25T03:11:13;98184.47;;;3.25;100.00
54389;BME280;40975;50.390;8.640;2024-03-25T03:13:38;98181.03;;;3.24;100.00
54389;BME280;40975;50.390;8.640;2024-03-25T03:16:04;98183.66;;;3.24;100.00
54389;BME280;40975;50.390;8.640;2024-03-25T03:18:30;98194.50;;;3.20;100.00
54389;BME280;40975;50.390;8.640;2024-03-25T03:20:55;98193.19;;;3.25;100.00
54389;BME280;40975;50.390;8.640;2024-03-25T03:23:22;98192.47;;;3.23;100.00
54389;BME280;40975;50.390;8.640;2024-03-25T03:25:47;98190.56;;;3.25;100.00
54389;BME280;40975;50.390;8.640;2024-03-25T03:28:13;98198.50;;;3.35;100.00
54389;BME280;40975;50.390;8.640;2024-03-25T03:30:40;98184.56;;;3.35;100.00
54389;BME280;40975;50.390;8.640;2024-03-25T03:33:05;98190.78;;;3.34;100.00
54389;BME280;40975;50.390;8.640;2024-03-25T03:35:33;98181.59;;;3.39;100.00
54389;BME280;40975;50.390;8.640;2024-03-25T03:37:58;98190.75;;;3.45;100.00
54389;BME280;40975;50.390;8.640;2024-03-25T03:40:23;98186.78;;;3.51;100.00
54389;BME280;40975;50.390;8.640;2024-03-25T03:42:49;98188.69;;;3.49;100.00
54389;BME280;40975;50.390;8.640;2024-03-25T03:45:14;98190.13;;;3.53;100.00
54389;BME280;40975;50.390;8.640;2024-03-25T03:47:39;98190.13;;;3.53;100.00
54389;BME280;40975;50.390;8.640;2024-03-25T03:50:06;98189.03;;;3.55;100.00
54389;BME280;40975;50.390;8.640;2024-03-25T03:52:33;98183.78;;;3.55;100.00
54389;BME280;40975;50.390;8.640;2024-03-25T03:54:58;98179.13;;;3.59;100.00
54389;BME280;40975;50.390;8.640;2024-03-25T03:57:23;98188.53;;;3.62;100.00
54389;BME280;40975;50.390;8.640;2024-03-25T03:59:51;98188.19;;;3.55;100.00
54389;BME280;40975;50.390;8.640;2024-03-25T04:02:16;98183.28;;;3.62;100.00
54389;BME280;40975;50.390;8.640;2024-03-25T04:04:41;98188.19;;;3.55;100.00
54389;BME280;40975;50.390;8.640;2024-03-25T04:07:07;98184.16;;;3.51;100.00
54389;BME280;40975;50.390;8.640;2024-03-25T04:09:32;98180.88;;;3.37;100.00
54389;BME280;40975;50.390;8.640;2024-03-25T04:11:58;98181.47;;;3.30;100.00
54389;BME280;40975;50.390;8.640;2024-03-25T04:14:23;98185.75;;;3.31;100.00
54389;BME280;40975;50.390;8.640;2024-03-25T04:16:48;98180.88;;;3.37;100.00
54389;BME280;40975;50.390;8.640;2024-03-25T04:19:14;98176.72;;;3.23;100.00
54389;BME280;40975;50.390;8.640;2024-03-25T04:21:39;98182.13;;;3.22;100.00
54389;BME280;40975;50.390;8.640;2024-03-25T04:24:05;98173.66;;;3.18;100.00
54389;BME280;40975;50.390;8.640;2024-03-25T04:26:31;98181.03;;;3.24;100.00
54389;BME280;40975;50.390;8.640;2024-03-25T04:28:56;98182.22;;;3.20;100.00
54389;BME280;40975;50.390;8.640;2024-03-25T04:31:22;98189.25;;;3.20;100.00
54389;BME280;40975;50.390;8.640;2024-03-25T04:33:47;98191.88;;;3.20;100.00
54389;BME280;40975;50.390;8.640;2024-03-25T04:36:13;98195.94;;;3.24;100.00
54389;BME280;40975;50.390;8.640;2024-03-25T04:38:38;98199.75;;;3.20;100.00
54389;BME280;40975;50.390;8.640;2024-03-25T04:41:04;98194.16;;;3.13;100.00
54389;BME280;40975;50.390;8.640;2024-03-25T04:43:29;98189.75;;;3.14;100.00
54389;BME280;40975;50.390;8.640;2024-03-25T04:45:55;98192.13;;;3.05;100.00
54389;BME280;40975;50.390;8.640;2024-03-25T04:48:20;98189.28;;;2.97;100.00
54389;BME280;40975;50.390;8.640;2024-03-25T04:50:46;98195.03;;;2.91;100.00
54389;BME280;40975;50.390;8.640;2024-03-25T04:53:13;98195.25;;;2.88;100.00
54389;BME280;40975;50.390;8.640;2024-03-25T04:55:38;98198.38;;;2.82;100.00
54389;BME280;40975;50.390;8.640;2024-03-25T04:58:03;98201.13;;;2.69;100.00
54389;BME280;40975;50.390;8.640;2024-03-25T05:00:29;98193.72;;;2.62;100.00
54389;BME280;40975;50.390;8.640;2024-03-25T05:02:54;98198.50;;;2.57;100.00
54389;BME280;40975;50.390;8.640;2024-03-25T05:05:20;98202.16;;;2.55;100.00
54389;BME280;40975;50.390;8.640;2024-03-25T05:07:47;98205.03;;;2.52;100.00
54389;BME280;40975;50.390;8.640;2024-03-25T05:10:12;98202.19;;;2.43;100.00
54389;BME280;40975;50.390;8.640;2024-03-25T05:12:38;98204.06;;;2.30;100.00
54389;BME280;40975;50.390;8.640;2024-03-25T05:15:04;98206.81;;;2.28;100.00
54389;BME280;40975;50.390;8.640;2024-03-25T05:17:30;98208.56;;;2.28;100.00
54389;BME280;40975;50.390;8.640;2024-03-25T05:19:55;98207.00;;;2.14;100.00
54389;BME280;40975;50.390;8.640;2024-03-25T05:22:20;98209.63;;;2.14;100.00
54389;BME280;40975;50.390;8.640;2024-03-25T05:24:46;98212.44;;;2.11;100.00
54389;BME280;40975;50.390;8.640;2024-03-25T05:27:11;98207.56;;;2.06;100.00
54389;BME280;40975;50.390;8.640;2024-03-25T05:29:36;98218.16;;;2.05;100.00
54389;BME280;40975;50.390;8.640;2024-03-25T05:32:02;98211.03;;;2.07;100.00
54389;BME280;40975;50.390;8.640;2024-03-25T05:34:28;98225.66;;;2.09;100.00
54389;BME280;40975;50.390;8.640;2024-03-25T05:36:54;98221.88;;;2.13;100.00
54389;BME280;40975;50.390;8.640;2024-03-25T05:39:20;98230.94;;;2.21;100.00
54389;BME280;40975;50.390;8.640;2024-03-25T05:41:46;98232.72;;;2.31;100.00
54389;BME280;40975;50.390;8.640;2024-03-25T05:44:11;98238.34;;;2.38;100.00
54389;BME280;40975;50.390;8.640;2024-03-25T05:46:38;98238.13;;;2.41;100.00
54389;BME280;40975;50.390;8.640;2024-03-25T05:49:03;98244.78;;;2.45;100.00
54389;BME280;40975;50.390;8.640;2024-03-25T05:51:30;98238.25;;;2.51;100.00
54389;BME280;40975;50.390;8.640;2024-03-25T05:53:55;98245.66;;;2.57;100.00
54389;BME280;40975;50.390;8.640;2024-03-25T05:56:21;98251.84;;;2.68;100.00
54389;BME280;40975;50.390;8.640;2024-03-25T05:58:46;98250.78;;;2.70;100.00
54389;BME280;40975;50.390;8.640;2024-03-25T06:01:12;98247.44;;;2.79;100.00
54389;BME280;40975;50.390;8.640;2024-03-25T06:03:37;98245.06;;;2.88;100.00
54389;BME280;40975;50.390;8.640;2024-03-25T06:06:03;98246.25;;;2.95;100.00
54389;BME280;40975;50.390;8.640;2024-03-25T06:08:28;98248.63;;;3.09;100.00
54389;BME280;40975;50.390;8.640;2024-03-25T06:10:54;98255.78;;;3.19;100.00
54389;BME280;40975;50.390;8.640;2024-03-25T06:13:25;98248.25;;;3.25;100.00
54389;BME280;40975;50.390;8.640;2024-03-25T06:15:50;98251.22;;;3.32;100.00
54389;BME280;40975;50.390;8.640;2024-03-25T06:18:15;98246.34;;;3.39;100.00
54389;BME280;40975;50.390;8.640;2024-03-25T06:20:41;98243.78;;;3.49;100.00
54389;BME280;40975;50.390;8.640;2024-03-25T06:23:06;98252.47;;;3.61;100.00
54389;BME280;40975;50.390;8.640;2024-03-25T06:25:32;98248.50;;;3.66;100.00
54389;BME280;40975;50.390;8.640;2024-03-25T06:27:58;98252.00;;;3.67;100.00
54389;BME280;40975;50.390;8.640;2024-03-25T06:30:24;98250.16;;;3.79;100.00
54389;BME280;40975;50.390;8.640;2024-03-25T06:33:08;98252.59;;;3.92;100.00
54389;BME280;40975;50.390;8.640;2024-03-25T06:35:52;98253.66;;;4.00;100.00
54389;BME280;40975;50.390;8.640;2024-03-25T06:38:17;98259.22;;;4.07;100.00
54389;BME280;40975;50.390;8.640;2024-03-25T06:40:45;98257.31;;;4.09;100.00
54389;BME280;40975;50.390;8.640;2024-03-25T06:43:10;98261.28;;;4.03;100.00
54389;BME280;40975;50.390;8.640;2024-03-25T06:45:36;98261.75;;;3.97;100.00
54389;BME280;40975;50.390;8.640;2024-03-25T06:48:01;98268.44;;;4.01;100.00
54389;BME280;40975;50.390;8.640;2024-03-25T06:50:26;98268.16;;;4.04;100.00
54389;BME280;40975;50.390;8.640;2024-03-25T06:52:52;98275.38;;;4.02;100.00
54389;BME280;40975;50.390;8.640;2024-03-25T06:55:17;98271.41;;;4.08;100.00
54389;BME280;40975;50.390;8.640;2024-03-25T06:57:47;98281.34;;;4.26;100.00
54389;BME280;40975;50.390;8.640;2024-03-25T07:00:13;98275.72;;;4.30;100.00
54389;BME280;40975;50.390;8.640;2024-03-25T07:02:39;98277.44;;;4.41;100.00
54389;BME280;40975;50.390;8.640;2024-03-25T07:05:05;98279.50;;;4.59;100.00
54389;BME280;40975;50.390;8.640;2024-03-25T07:07:31;98282.34;;;4.77;100.00
54389;BME280;40975;50.390;8.640;2024-03-25T07:09:56;98276.53;;;4.73;100.00
54389;BME280;40975;50.390;8.640;2024-03-25T07:12:22;98275.69;;;4.51;100.00
54389;BME280;40975;50.390;8.640;2024-03-25T07:14:47;98293.78;;;4.45;100.00
54389;BME280;40975;50.390;8.640;2024-03-25T07:17:12;98288.13;;;4.28;100.00
54389;BME280;40975;50.390;8.640;2024-03-25T07:19:38;98290.19;;;4.25;100.00
54389;BME280;40975;50.390;8.640;2024-03-25T07:22:03;98298.06;;;4.25;100.00
54389;BME280;40975;50.390;8.640;2024-03-25T07:24:29;98299.50;;;4.29;100.00
54389;BME280;40975;50.390;8.640;2024-03-25T07:26:54;98303.75;;;4.30;100.00
54389;BME280;40975;50.390;8.640;2024-03-25T07:29:19;98309.44;;;4.46;100.00
54389;BME280;40975;50.390;8.640;2024-03-25T07:31:45;98309.28;;;4.48;100.00
54389;BME280;40975;50.390;8.640;2024-03-25T07:34:10;98301.78;;;4.43;100.00
54389;BME280;40975;50.390;8.640;2024-03-25T07:36:37;98302.41;;;4.35;100.00
54389;BME280;40975;50.390;8.640;2024-03-25T07:39:04;98302.25;;;4.48;100.00
54389;BME280;40975;50.390;8.640;2024-03-25T07:41:31;98304.50;;;4.53;100.00
54389;BME280;40975;50.390;8.640;2024-03-25T07:43:56;98297.25;;;4.97;100.00
54389;BME280;40975;50.390;8.640;2024-03-25T07:46:22;98293.75;;;6.87;100.00
54389;BME280;40975;50.390;8.640;2024-03-25T07:48:47;98282.66;;;7.94;89.64
54389;BME280;40975;50.390;8.640;2024-03-25T07:51:12;98279.66;;;8.96;81.28
54389;BME280;40975;50.390;8.640;2024-03-25T07:53:37;98328.53;;;9.45;79.04
54389;BME280;40975;50.390;8.640;2024-03-25T07:56:03;98324.69;;;9.05;76.00
54389;BME280;40975;50.390;8.640;2024-03-25T07:58:30;98324.28;;;8.91;76.17
54389;BME280;40975;50.390;8.640;2024-03-25T08:00:55;98331.22;;;9.18;75.04
54389;BME280;40975;50.390;8.640;2024-03-25T08:03:21;98332.44;;;9.67;73.36
54389;BME280;40975;50.390;8.640;2024-03-25T08:05:47;98333.19;;;9.94;70.94
54389;BME280;40975;50.390;8.640;2024-03-25T08:08:12;98329.44;;;10.13;69.98
54389;BME280;40975;50.390;8.640;2024-03-25T08:10:38;98333.16;;;10.62;66.47
54389;BME280;40975;50.390;8.640;2024-03-25T08:13:03;98330.56;;;11.18;64.32
54389;BME280;40975;50.390;8.640;2024-03-25T08:15:29;98335.38;;;12.34;60.87
54389;BME280;40975;50.390;8.640;2024-03-25T08:17:54;98345.44;;;12.85;58.23
54389;BME280;40975;50.390;8.640;2024-03-25T08:20:20;98337.47;;;13.00;59.11
54389;BME280;40975;50.390;8.640;2024-03-25T08:22:45;98338.31;;;13.00;57.24
54389;BME280;40975;50.390;8.640;2024-03-25T08:25:11;98342.47;;;13.33;55.04
54389;BME280;40975;50.390;8.640;2024-03-25T08:27:37;98345.09;;;14.08;53.43
54389;BME280;40975;50.390;8.640;2024-03-25T08:30:03;98342.78;;;14.63;51.06
54389;BME280;40975;50.390;8.640;2024-03-25T08:32:28;98336.56;;;15.06;50.39
54389;BME280;40975;50.390;8.640;2024-03-25T08:34:54;98339.84;;;13.48;51.98
54389;BME280;40975;50.390;8.640;2024-03-25T08:37:19;98331.13;;;12.48;55.36
54389;BME280;40975;50.390;8.640;2024-03-25T08:39:45;98345.53;;;13.75;51.91
54389;BME280;40975;50.390;8.640;2024-03-25T08:42:12;98337.00;;;11.40;56.42
54389;BME280;40975;50.390;8.640;2024-03-25T08:44:38;98338.06;;;10.32;58.32
54389;BME280;40975;50.390;8.640;2024-03-25T08:47:03;98326.13;;;10.36;62.55
54389;BME280;40975;50.390;8.640;2024-03-25T08:49:29;98323.66;;;9.67;61.09
54389;BME280;40975;50.390;8.640;2024-03-25T08:51:54;98322.72;;;9.07;63.60
54389;BME280;40975;50.390;8.640;2024-03-25T08:54:19;98319.97;;;8.90;65.93
54389;BME280;40975;50.390;8.640;2024-03-25T08:56:45;98321.34;;;8.50;65.13
54389;BME280;40975;50.390;8.640;2024-03-25T08:59:10;98315.78;;;8.43;66.32
54389;BME280;40975;50.390;8.640;2024-03-25T09:01:35;98317.91;;;8.39;65.20
54389;BME280;40975;50.390;8.640;2024-03-25T09:04:01;98316.31;;;8.47;64.25
54389;BME280;40975;50.390;8.640;2024-03-25T09:06:27;98315.03;;;8.69;65.28
54389;BME280;40975;50.390;8.640;2024-03-25T09:08:53;98322.34;;;11.53;58.69
54389;BME280;40975;50.390;8.640;2024-03-25T09:11:36;98335.06;;;13.73;56.89
54389;BME280;40975;50.390;8.640;2024-03-25T09:14:02;98318.75;;;12.08;51.15
54389;BME280;40975;50.390;8.640;2024-03-25T09:16:29;98318.31;;;11.17;54.85
54389;BME280;40975;50.390;8.640;2024-03-25T09:18:55;98321.00;;;10.26;54.61
54389;BME280;40975;50.390;8.640;2024-03-25T09:21:21;98323.44;;;10.03;57.91
54389;BME280;40975;50.390;8.640;2024-03-25T09:23:49;98320.50;;;9.20;59.97
54389;BME280;40975;50.390;8.640;2024-03-25T09:26:14;98320.97;;;9.15;61.80
54389;BME280;40975;50.390;8.640;2024-03-25T09:28:40;98307.97;;;9.04;63.85
54389;BME280;40975;50.390;8.640;2024-03-25T09:31:06;98311.41;;;8.96;67.82
54389;BME280;40975;50.390;8.640;2024-03-25T09:33:31;98311.41;;;8.96;66.43
54389;BME280;40975;50.390;8.640;2024-03-25T09:35:56;98307.25;;;9.20;67.28
54389;BME280;40975;50.390;8.640;2024-03-25T09:38:24;98311.09;;;9.77;65.68
54389;BME280;40975;50.390;8.640;2024-03-25T09:40:52;98302.56;;;10.16;62.11
54389;BME280;40975;50.390;8.640;2024-03-25T09:43:25;98296.06;;;11.10;56.10
54389;BME280;40975;50.390;8.640;2024-03-25T09:45:54;98303.78;;;13.82;50.69
54389;BME280;40975;50.390;8.640;2024-03-25T09:48:21;98306.19;;;13.17;52.66
54389;BME280;40975;50.390;8.640;2024-03-25T09:50:46;98299.16;;;12.86;52.96
54389;BME280;40975;50.390;8.640;2024-03-25T09:53:12;98300.53;;;11.65;54.39
54389;BME280;40975;50.390;8.640;2024-03-25T09:55:37;98299.34;;;11.20;57.64
54389;BME280;40975;50.390;8.640;2024-03-25T09:58:03;98299.69;;;11.96;57.71
54389;BME280;40975;50.390;8.640;2024-03-25T10:00:30;98300.75;;;11.79;55.14
54389;BME280;40975;50.390;8.640;2024-03-25T10:02:55;98288.94;;;11.50;57.39
54389;BME280;40975;50.390;8.640;2024-03-25T10:05:21;98298.22;;;14.42;52.27
54389;BME280;40975;50.390;8.640;2024-03-25T10:07:46;98300.22;;;13.60;53.66
54389;BME280;40975;50.390;8.640;2024-03-25T10:10:11;98292.56;;;12.43;52.01
54389;BME280;40975;50.390;8.640;2024-03-25T10:12:37;98289.38;;;11.70;54.61
54389;BME280;40975;50.390;8.640;2024-03-25T10:15:05;98297.53;;;14.55;49.73
54389;BME280;40975;50.390;8.640;2024-03-25T10:17:31;98296.00;;;14.24;46.50
54389;BME280;40975;50.390;8.640;2024-03-25T10:19:56;98280.03;;;14.74;45.72
54389;BME280;40975;50.390;8.640;2024-03-25T10:22:22;98278.44;;;13.26;46.40
54389;BME280;40975;50.390;8.640;2024-03-25T10:24:48;98275.66;;;12.89;48.31
54389;BME280;40975;50.390;8.640;2024-03-25T10:27:23;98287.50;;;14.85;43.75
54389;BME280;40975;50.390;8.640;2024-03-25T10:29:53;98282.88;;;13.49;44.74
54389;BME280;40975;50.390;8.640;2024-03-25T10:32:20;98270.88;;;12.32;48.06
54389;BME280;40975;50.390;8.640;2024-03-25T10:34:46;98260.44;;;11.44;50.22
54389;BME280;40975;50.390;8.640;2024-03-25T10:37:11;98249.28;;;12.03;48.49
54389;BME280;40975;50.390;8.640;2024-03-25T10:39:40;98258.06;;;14.50;45.17
54389;BME280;40975;50.390;8.640;2024-03-25T10:42:11;98251.63;;;15.85;43.85
54389;BME280;40975;50.390;8.640;2024-03-25T10:44:38;98253.88;;;15.39;41.46
54389;BME280;40975;50.390;8.640;2024-03-25T10:47:05;98253.41;;;15.71;41.13
54389;BME280;40975;50.390;8.640;2024-03-25T10:49:51;98251.44;;;16.00;41.13
54389;BME280;40975;50.390;8.640;2024-03-25T10:52:21;98246.72;;;15.95;44.05
54389;BME280;40975;50.390;8.640;2024-03-25T10:54:49;98245.59;;;14.36;45.77
54389;BME280;40975;50.390;8.640;2024-03-25T10:57:16;98233.09;;;13.71;45.77
54389;BME280;40975;50.390;8.640;2024-03-25T10:59:45;98236.38;;;13.73;46.43
54389;BME280;40975;50.390;8.640;2024-03-25T11:02:11;98227.09;;;13.69;49.86
54389;BME280;40975;50.390;8.640;2024-03-25T11:04:37;98223.06;;;12.91;49.08
54389;BME280;40975;50.390;8.640;2024-03-25T11:07:08;98222.16;;;12.31;50.83
54389;BME280;40975;50.390;8.640;2024-03-25T11:09:33;98219.69;;;13.86;52.15
54389;BME280;40975;50.390;8.640;2024-03-25T11:12:00;98211.41;;;14.24;47.09
54389;BME280;40975;50.390;8.640;2024-03-25T11:14:26;98204.03;;;14.48;50.44
54389;BME280;40975;50.390;8.640;2024-03-25T11:16:52;98201.75;;;13.95;48.15
54389;BME280;40975;50.390;8.640;2024-03-25T11:19:18;98203.84;;;14.78;50.98
54389;BME280;40975;50.390;8.640;2024-03-25T11:21:44;98205.38;;;14.94;47.66
54389;BME280;40975;50.390;8.640;2024-03-25T11:24:09;98198.41;;;14.43;48.07
54389;BME280;40975;50.390;8.640;2024-03-25T11:26:40;98197.94;;;14.61;48.96
54389;BME280;40975;50.390;8.640;2024-03-25T11:29:06;98188.66;;;13.57;45.25
54389;BME280;40975;50.390;8.640;2024-03-25T11:31:33;98185.28;;;13.70;50.00
54389;BME280;40975;50.390;8.640;2024-03-25T11:34:04;98181.19;;;13.00;47.67
54389;BME280;40975;50.390;8.640;2024-03-25T11:36:30;98178.09;;;12.82;47.15
54389;BME280;40975;50.390;8.640;2024-03-25T11:39:03;98168.97;;;12.31;46.54
54389;BME280;40975;50.390;8.640;2024-03-25T11:41:31;98168.78;;;12.33;46.95
54389;BME280;40975;50.390;8.640;2024-03-25T11:43:57;98164.56;;;12.83;46.55
54389;BME280;40975;50.390;8.640;2024-03-25T11:46:26;98161.72;;;12.55;46.58
54389;BME280;40975;50.390;8.640;2024-03-25T11:48:52;98157.38;;;12.39;49.51
54389;BME280;40975;50.390;8.640;2024-03-25T11:51:21;98154.81;;;13.05;47.57
54389;BME280;40975;50.390;8.640;2024-03-25T11:53:50;98165.03;;;13.38;45.92
54389;BME280;40975;50.390;8.640;2024-03-25T11:56:15;98162.56;;;12.70;45.70
54389;BME280;40975;50.390;8.640;2024-03-25T11:58:40;98150.72;;;12.43;46.07
54389;BME280;40975;50.390;8.640;2024-03-25T12:01:07;98155.75;;;13.34;47.76
54389;BME280;40975;50.390;8.640;2024-03-25T12:03:35;98148.28;;;14.32;47.85
54389;BME280;40975;50.390;8.640;2024-03-25T12:06:01;98141.06;;;14.32;45.89
54389;BME280;40975;50.390;8.640;2024-03-25T12:08:27;98139.38;;;14.24;45.57
54389;BME280;40975;50.390;8.640;2024-03-25T12:10:54;98137.81;;;13.80;44.34
54389;BME280;40975;50.390;8.640;2024-03-25T12:13:39;98130.06;;;14.13;45.45
54389;BME280;40975;50.390;8.640;2024-03-25T12:16:09;98122.66;;;13.44;43.58
54389;BME280;40975;50.390;8.640;2024-03-25T12:18:36;98121.13;;;13.34;43.04
54389;BME280;40975;50.390;8.640;2024-03-25T12:21:04;98120.41;;;12.74;46.12
54389;BME280;40975;50.390;8.640;2024-03-25T12:23:33;98117.03;;;12.35;45.65
54389;BME280;40975;50.390;8.640;2024-03-25T12:26:00;98109.44;;;12.62;44.17
54389;BME280;40975;50.390;8.640;2024-03-25T12:28:25;98108.50;;;12.40;44.75
54389;BME280;40975;50.390;8.640;2024-03-25T12:30:55;98090.16;;;12.60;44.94
54389;BME280;40975;50.390;8.640;2024-03-25T12:33:23;98083.44;;;12.64;44.54
54389;BME280;40975;50.390;8.640;2024-03-25T12:35:50;98089.19;;;12.83;44.41
54389;BME280;40975;50.390;8.640;2024-03-25T12:38:30;98073.16;;;12.61;43.72
54389;BME280;40975;50.390;8.640;2024-03-25T12:41:07;98066.72;;;12.70;45.88
54389;BME280;40975;50.390;8.640;2024-03-25T12:43:34;98068.75;;;12.53;46.79
54389;BME280;40975;50.390;8.640;2024-03-25T12:46:00;98065.09;;;12.39;48.69
54389;BME280;40975;50.390;8.640;2024-03-25T12:48:26;98064.34;;;12.46;48.94
54389;BME280;40975;50.390;8.640;2024-03-25T12:50:51;98061.13;;;12.50;49.19
54389;BME280;40975;50.390;8.640;2024-03-25T12:53:19;98057.28;;;12.53;48.32
54389;BME280;40975;50.390;8.640;2024-03-25T12:55:45;98059.00;;;12.75;47.08